Time;durP1;ratioP1;P1;durP2;ratioP2;P2;SDS_P1;SDS_P2;PMS_P1;PMS_P2;Temp;Humidity;BMP_temperature;BMP_pressure;BME280_temperature;BME280_humidity;BME280_pressure;Samples;Min_cycle;Max_cycle;Signal;HPM_P1;HPM_P2
2022/03/23 00:02:26;;;;;;;39.22;20.17;;;5.90;58.00;;;;;;5072292;28;20227;-69
2022/03/23 00:04:55;;;;;;;25.95;15.30;;;5.90;58.00;;;;;;5079063;28;20991;-70
2022/03/23 00:07:23;;;;;;;28.92;16.20;;;5.90;58.00;;;;;;5065470;28;20246;-71
2022/03/23 00:09:52;;;;;;;32.78;17.55;;;5.80;58.00;;;;;;5082794;28;20211;-71
2022/03/23 00:12:25;;;;;;;31.90;18.27;;;5.70;58.00;;;;;;5081565;28;20235;-70
2022/03/23 00:14:54;;;;;;;40.28;20.83;;;5.70;58.10;;;;;;5062872;28;20215;-70
2022/03/23 00:17:22;;;;;;;55.22;27.05;;;5.60;58.20;;;;;;5075013;28;20810;-70
2022/03/23 00:19:50;;;;;;;41.90;23.90;;;5.60;58.30;;;;;;5073478;28;20701;-70
2022/03/23 00:22:20;;;;;;;34.40;20.08;;;5.50;58.40;;;;;;5070991;28;20199;-70
2022/03/23 00:24:48;;;;;;;39.97;22.75;;;5.50;58.50;;;;;;5070492;28;20707;-70
2022/03/23 00:27:17;;;;;;;32.40;19.27;;;5.50;58.60;;;;;;5072027;28;20283;-70
2022/03/23 00:29:46;;;;;;;33.50;18.30;;;5.50;58.70;;;;;;5060241;28;20216;-69
2022/03/23 00:32:14;;;;;;;38.42;20.48;;;5.60;58.70;;;;;;5063352;28;20619;-69
2022/03/23 00:34:42;;;;;;;29.58;14.65;;;5.60;58.80;;;;;;5071569;28;20339;-70
2022/03/23 00:37:10;;;;;;;22.33;15.20;;;5.60;58.70;;;;;;5072537;28;20700;-70
2022/03/23 00:39:40;;;;;;;22.83;14.43;;;5.60;58.70;;;;;;5062146;28;20245;-71
2022/03/23 00:42:11;;;;;;;27.73;16.38;;;5.60;58.80;;;;;;5070931;28;20203;-72
2022/03/23 00:44:39;;;;;;;26.40;15.73;;;5.60;58.80;;;;;;5063888;28;20281;-70
2022/03/23 00:47:07;;;;;;;24.92;14.30;;;5.60;58.80;;;;;;5072629;28;20219;-70
2022/03/23 00:49:35;;;;;;;27.77;15.27;;;5.60;58.80;;;;;;5071333;28;20208;-70
2022/03/23 00:52:05;;;;;;;24.83;15.18;;;5.60;58.80;;;;;;5072333;28;20219;-68
2022/03/23 00:54:34;;;;;;;23.13;14.65;;;5.60;58.80;;;;;;5069266;28;20242;-69
2022/03/23 00:57:06;;;;;;;21.58;14.10;;;5.60;58.80;;;;;;5060963;28;20291;-70
2022/03/23 00:59:35;;;;;;;22.60;14.57;;;5.60;58.70;;;;;;5058902;28;20264;-70
2022/03/23 01:02:04;;;;;;;24.35;14.40;;;5.50;58.70;;;;;;5069895;28;20799;-69
2022/03/23 01:04:32;;;;;;;24.98;14.98;;;5.50;58.70;;;;;;5075302;28;20635;-69
2022/03/23 01:07:00;;;;;;;24.10;13.13;;;5.50;58.80;;;;;;5076843;28;20746;-69
2022/03/23 01:09:28;;;;;;;30.05;16.55;;;5.50;58.80;;;;;;5071849;28;20943;-70
2022/03/23 01:11:56;;;;;;;31.70;18.98;;;5.40;58.70;;;;;;5072888;28;20252;-69
2022/03/23 01:14:26;;;;;;;28.75;16.60;;;5.40;58.70;;;;;;5055801;28;20254;-69
2022/03/23 01:16:55;;;;;;;28.20;16.30;;;5.30;58.80;;;;;;5052455;28;20250;-70
2022/03/23 01:19:25;;;;;;;33.67;19.38;;;5.30;58.90;;;;;;5075506;28;20191;-70
2022/03/23 01:21:53;;;;;;;39.35;21.50;;;5.30;59.00;;;;;;5072473;28;20623;-68
2022/03/23 01:24:22;;;;;;;32.10;18.10;;;5.30;58.90;;;;;;5076617;28;20269;-71
2022/03/23 01:26:50;;;;;;;30.83;19.42;;;5.30;58.90;;;;;;5073059;28;20191;-69
2022/03/23 01:29:18;;;;;;;37.72;25.15;;;5.20;58.70;;;;;;5062692;28;20637;-70
2022/03/23 01:31:48;;;;;;;41.97;26.23;;;5.10;58.70;;;;;;5069809;28;20233;-70
2022/03/23 01:34:16;;;;;;;37.03;23.10;;;4.90;58.80;;;;;;5078604;28;20226;-69
2022/03/23 01:36:44;;;;;;;175.18;89.10;;;4.90;58.90;;;;;;5072992;28;20216;-70
2022/03/23 01:39:14;;;;;;;81.07;42.45;;;4.80;59.00;;;;;;5063737;28;20211;-68
2022/03/23 01:41:42;;;;;;;37.63;22.88;;;4.70;59.10;;;;;;5055654;28;20211;-71
2022/03/23 01:44:17;;;;;;;32.63;17.73;;;4.60;59.20;;;;;;5074192;28;20234;-69
2022/03/23 01:47:06;;;;;;;34.05;17.33;;;4.60;59.40;;;;;;5073541;28;20227;-70
2022/03/23 01:49:35;;;;;;;33.53;17.00;;;4.50;59.40;;;;;;5074110;28;20211;-70
2022/03/23 01:52:06;;;;;;;23.38;14.68;;;4.50;59.50;;;;;;5075467;28;20208;-69
2022/03/23 01:54:36;;;;;;;26.42;16.15;;;4.50;59.60;;;;;;5074525;28;20250;-70
2022/03/23 01:57:05;;;;;;;33.28;16.80;;;4.50;59.60;;;;;;5056195;28;20211;-70
2022/03/23 01:59:34;;;;;;;37.75;21.05;;;4.50;59.70;;;;;;5074901;28;20666;-70
2022/03/23 02:02:05;;;;;;;48.33;25.05;;;4.50;59.90;;;;;;5060066;28;20263;-70
2022/03/23 02:04:39;;;;;;;25.60;14.55;;;4.50;59.90;;;;;;5059797;28;20753;-69
2022/03/23 02:07:07;;;;;;;23.83;13.85;;;4.60;59.90;;;;;;5077698;28;20316;-69
2022/03/23 02:09:38;;;;;;;22.95;14.50;;;4.60;59.90;;;;;;5060522;28;20225;-69
2022/03/23 02:12:12;;;;;;;50.00;24.92;;;4.60;59.90;;;;;;5064098;28;20286;-69
2022/03/23 02:14:40;;;;;;;35.95;19.45;;;4.50;59.90;;;;;;5072664;28;20230;-70
2022/03/23 02:17:09;;;;;;;24.83;15.88;;;4.50;59.90;;;;;;5073883;28;20616;-69
2022/03/23 02:19:37;;;;;;;19.63;12.80;;;4.50;59.90;;;;;;5059669;28;20208;-69
2022/03/23 02:22:07;;;;;;;18.20;12.82;;;4.50;59.90;;;;;;5064196;28;20282;-70
2022/03/23 02:24:35;;;;;;;84.60;42.97;;;4.40;59.90;;;;;;5073355;28;20239;-71
2022/03/23 02:27:03;;;;;;;56.20;32.65;;;4.40;59.90;;;;;;5077186;28;20744;-71
2022/03/23 02:29:34;;;;;;;27.92;17.67;;;4.30;59.90;;;;;;5073313;28;20217;-71
2022/03/23 02:32:02;;;;;;;42.05;21.80;;;4.30;60.00;;;;;;5087540;28;20227;-71
2022/03/23 02:34:31;;;;;;;67.53;35.55;;;4.20;60.00;;;;;;5074352;28;20227;-69
2022/03/23 02:36:59;;;;;;;31.00;20.23;;;4.10;60.00;;;;;;5081779;28;20204;-71
2022/03/23 02:39:29;;;;;;;36.50;22.35;;;4.10;60.00;;;;;;5083427;28;20202;-71
2022/03/23 02:41:57;;;;;;;37.53;20.55;;;4.00;60.10;;;;;;5076002;28;20203;-70
2022/03/23 02:44:26;;;;;;;29.45;15.15;;;4.00;60.20;;;;;;5076562;28;20223;-70
2022/03/23 02:46:54;;;;;;;31.67;18.52;;;4.00;60.30;;;;;;5075576;28;20231;-71
2022/03/23 02:49:22;;;;;;;26.38;15.80;;;3.90;60.40;;;;;;5063915;28;20612;-70
2022/03/23 02:51:50;;;;;;;29.08;17.05;;;3.90;60.50;;;;;;5077250;28;20253;-70
2022/03/23 03:03:30;;;;;;;22.13;13.73;;;3.80;60.70;;;;;;5074762;28;20237;-69
2022/03/23 03:05:58;;;;;;;24.35;14.57;;;3.80;60.80;;;;;;5076147;28;20558;-70
2022/03/23 03:11:11;;;;;;;23.92;13.48;;;3.90;60.90;;;;;;5077964;28;20276;-71
2022/03/23 03:13:42;;;;;;;23.20;14.02;;;3.90;60.90;;;;;;5075372;28;20265;-70
2022/03/23 03:16:10;;;;;;;22.75;13.80;;;3.90;60.90;;;;;;5073401;28;20232;-70
2022/03/23 03:18:39;;;;;;;22.38;13.10;;;3.90;60.90;;;;;;5073951;28;20212;-70
2022/03/23 03:21:08;;;;;;;25.48;14.75;;;3.90;61.10;;;;;;5072945;28;20293;-70
2022/03/23 03:23:38;;;;;;;31.23;16.10;;;3.90;61.10;;;;;;5064905;28;20285;-71
2022/03/23 03:26:06;;;;;;;37.85;18.42;;;4.00;61.10;;;;;;5073822;28;21146;-71
2022/03/23 03:28:35;;;;;;;29.85;17.10;;;4.00;61.10;;;;;;5077876;28;20206;-70
2022/03/23 03:31:06;;;;;;;29.55;16.92;;;4.00;61.00;;;;;;5075059;28;20295;-71
2022/03/23 03:33:34;;;;;;;74.95;34.42;;;4.00;60.90;;;;;;5077975;28;20246;-71
2022/03/23 03:36:03;;;;;;;75.78;37.45;;;3.90;61.00;;;;;;5076197;28;20243;-70
2022/03/23 03:38:32;;;;;;;26.30;14.65;;;3.90;61.00;;;;;;5076914;28;20257;-70
2022/03/23 03:41:01;;;;;;;18.00;12.65;;;3.90;61.10;;;;;;5077614;28;20233;-70
2022/03/23 03:43:31;;;;;;;16.48;11.43;;;3.90;61.20;;;;;;5076583;28;20230;-71
2022/03/23 03:46:00;;;;;;;30.65;13.18;;;4.00;61.20;;;;;;5072322;28;20253;-69
2022/03/23 03:48:30;;;;;;;19.75;12.80;;;4.00;61.10;;;;;;5080216;28;20199;-71
2022/03/23 03:50:59;;;;;;;20.17;12.27;;;4.00;61.10;;;;;;5082346;28;20226;-71
2022/03/23 03:53:27;;;;;;;15.25;10.90;;;3.90;61.10;;;;;;5089111;28;20224;-71
2022/03/23 03:56:07;;;;;;;17.63;11.40;;;3.90;61.00;;;;;;5083436;28;20256;-70
2022/03/23 03:58:36;;;;;;;25.30;15.85;;;3.80;61.00;;;;;;5085649;28;20203;-69
2022/03/23 04:01:04;;;;;;;44.60;24.48;;;3.80;61.00;;;;;;5082828;28;20238;-70
2022/03/23 04:03:34;;;;;;;22.25;14.13;;;3.80;60.90;;;;;;5081132;28;20789;-70
2022/03/23 04:06:02;;;;;;;17.52;12.13;;;3.70;61.00;;;;;;5074506;28;20208;-70
2022/03/23 04:08:30;;;;;;;18.55;11.40;;;3.70;61.10;;;;;;5079675;28;20203;-70
2022/03/23 04:10:58;;;;;;;26.05;15.32;;;3.70;61.20;;;;;;5079909;28;20243;-70
2022/03/23 04:13:26;;;;;;;23.83;14.45;;;3.70;61.30;;;;;;5079196;28;20223;-70
2022/03/23 04:15:54;;;;;;;20.98;14.48;;;3.70;61.30;;;;;;5075566;28;20230;-70
2022/03/23 04:18:22;;;;;;;21.77;13.23;;;3.80;61.30;;;;;;5077662;28;20207;-70
2022/03/23 04:20:52;;;;;;;20.27;12.27;;;3.70;61.20;;;;;;5075917;28;20214;-70
2022/03/23 04:23:20;;;;;;;20.73;12.88;;;3.70;61.20;;;;;;5077734;28;20602;-70
2022/03/23 04:25:48;;;;;;;22.40;13.57;;;3.70;61.20;;;;;;5063195;28;20207;-70
2022/03/23 04:28:16;;;;;;;19.98;12.27;;;3.70;61.20;;;;;;5076574;28;20583;-70
2022/03/23 04:30:44;;;;;;;26.42;14.30;;;3.60;61.20;;;;;;5075407;28;20234;-70
2022/03/23 04:33:12;;;;;;;22.02;13.30;;;3.60;61.20;;;;;;5072894;28;20232;-70
2022/03/23 04:35:40;;;;;;;21.48;13.65;;;3.60;61.10;;;;;;5074426;28;20199;-70
2022/03/23 04:38:09;;;;;;;21.95;14.23;;;3.50;61.30;;;;;;5066198;28;20211;-70
2022/03/23 04:40:37;;;;;;;17.80;12.25;;;3.40;61.20;;;;;;5081401;28;20233;-70
2022/03/23 04:43:05;;;;;;;24.33;12.93;;;3.40;61.20;;;;;;5076274;28;20226;-70
2022/03/23 04:45:33;;;;;;;25.05;13.48;;;3.40;61.30;;;;;;5089724;28;20239;-70
2022/03/23 04:48:02;;;;;;;20.10;12.82;;;3.30;61.30;;;;;;5085276;28;20207;-71
2022/03/23 04:50:29;;;;;;;22.38;14.10;;;3.30;61.40;;;;;;5073272;28;20204;-71
2022/03/23 04:52:57;;;;;;;21.48;13.68;;;3.20;61.40;;;;;;5082548;28;20288;-69
2022/03/23 04:55:27;;;;;;;19.90;11.77;;;3.20;61.40;;;;;;5074442;28;20196;-70
2022/03/23 04:57:55;;;;;;;22.90;15.13;;;3.20;61.50;;;;;;5080360;28;20925;-70
2022/03/23 05:00:23;;;;;;;29.50;17.85;;;3.10;61.50;;;;;;5081018;28;20429;-71
2022/03/23 05:02:51;;;;;;;30.90;19.05;;;3.10;61.60;;;;;;5073259;28;20664;-70
2022/03/23 05:05:20;;;;;;;27.38;19.90;;;3.10;61.60;;;;;;5073338;28;20216;-71
2022/03/23 05:07:48;;;;;;;24.63;17.35;;;3.10;61.70;;;;;;5083759;28;20214;-70
2022/03/23 05:10:17;;;;;;;24.70;15.20;;;3.10;61.80;;;;;;5071686;28;20207;-70
2022/03/23 05:12:47;;;;;;;19.65;13.05;;;3.10;61.90;;;;;;5074724;28;20223;-70
2022/03/23 05:15:16;;;;;;;24.65;15.15;;;3.20;62.00;;;;;;5071961;28;20203;-70
2022/03/23 05:17:45;;;;;;;39.67;24.08;;;3.20;62.00;;;;;;5078275;28;20195;-70
2022/03/23 05:20:15;;;;;;;28.08;17.55;;;3.20;61.90;;;;;;5076131;28;20655;-70
2022/03/23 05:22:42;;;;;;;21.55;15.60;;;3.20;61.80;;;;;;5077436;28;20210;-70
2022/03/23 05:25:13;;;;;;;21.63;14.20;;;3.20;61.90;;;;;;5073463;28;20253;-70
2022/03/23 05:27:42;;;;;;;22.60;13.50;;;3.20;62.00;;;;;;5072004;28;20195;-70
2022/03/23 05:30:13;;;;;;;20.95;12.30;;;3.20;62.00;;;;;;5074735;28;20204;-70
2022/03/23 05:32:41;;;;;;;21.30;14.60;;;3.20;61.90;;;;;;5071838;28;20207;-69
2022/03/23 05:35:11;;;;;;;29.25;16.70;;;3.20;61.90;;;;;;5075529;28;20198;-70
2022/03/23 05:37:39;;;;;;;34.40;20.67;;;3.20;61.90;;;;;;5074784;28;20217;-70
2022/03/23 05:40:11;;;;;;;34.72;20.30;;;3.10;61.90;;;;;;5073824;28;20215;-70
2022/03/23 05:42:39;;;;;;;30.13;18.38;;;3.10;61.90;;;;;;5053092;28;20199;-70
2022/03/23 05:45:09;;;;;;;30.60;17.20;;;3.10;62.00;;;;;;5073766;28;20212;-70
2022/03/23 05:47:40;;;;;;;26.52;16.27;;;3.20;62.20;;;;;;5077335;28;20208;-69
2022/03/23 05:50:09;;;;;;;25.60;17.05;;;3.20;62.20;;;;;;5075507;28;20627;-71
2022/03/23 05:52:40;;;;;;;25.58;17.05;;;3.20;62.20;;;;;;5075493;28;20227;-69
2022/03/23 05:55:09;;;;;;;21.15;13.02;;;3.30;62.20;;;;;;5079320;28;20218;-69
2022/03/23 05:57:37;;;;;;;22.75;13.77;;;3.30;62.20;;;;;;5074423;28;20203;-69
2022/03/23 06:00:07;;;;;;;22.33;13.68;;;3.30;62.20;;;;;;5071550;28;20622;-69
2022/03/23 06:02:42;;;;;;;24.13;14.98;;;3.30;62.20;;;;;;5077448;28;20277;-69
2022/03/23 06:05:10;;;;;;;24.50;16.60;;;3.40;62.20;;;;;;5079179;28;20817;-69
2022/03/23 06:07:39;;;;;;;22.00;14.40;;;3.30;62.20;;;;;;5079733;28;20212;-69
2022/03/23 06:10:08;;;;;;;22.63;14.18;;;3.30;62.20;;;;;;5081758;28;20994;-69
2022/03/23 06:12:36;;;;;;;23.00;14.50;;;3.30;62.20;;;;;;5073744;28;20216;-70
2022/03/23 06:15:06;;;;;;;22.45;15.02;;;3.30;62.30;;;;;;5058425;28;20211;-69
2022/03/23 06:17:34;;;;;;;22.60;15.02;;;3.30;62.40;;;;;;5079662;28;20297;-70
2022/03/23 06:20:03;;;;;;;18.52;13.68;;;3.30;62.50;;;;;;5078935;28;20230;-70
2022/03/23 06:22:32;;;;;;;22.40;14.55;;;3.30;62.50;;;;;;5075864;28;20192;-69
2022/03/23 06:25:00;;;;;;;23.70;15.50;;;3.40;62.60;;;;;;5075308;28;20288;-69
2022/03/23 06:27:28;;;;;;;27.90;15.60;;;3.40;62.70;;;;;;5075804;28;20211;-70
2022/03/23 06:29:56;;;;;;;23.98;15.32;;;3.50;62.80;;;;;;5079996;28;20620;-70
2022/03/23 06:32:24;;;;;;;23.30;14.93;;;3.50;62.80;;;;;;5072262;28;20231;-69
2022/03/23 06:34:52;;;;;;;21.25;13.68;;;3.50;62.90;;;;;;5072745;28;20220;-69
2022/03/23 06:37:21;;;;;;;26.95;14.50;;;3.60;62.90;;;;;;5060863;28;20635;-69
2022/03/23 06:39:50;;;;;;;20.33;14.02;;;3.70;63.00;;;;;;5078586;28;20207;-69
2022/03/23 06:42:18;;;;;;;23.70;14.40;;;3.70;63.00;;;;;;5074811;28;20210;-69
2022/03/23 06:44:46;;;;;;;21.33;13.07;;;3.80;63.00;;;;;;5067411;28;20258;-69
2022/03/23 06:47:14;;;;;;;22.58;14.15;;;3.80;63.10;;;;;;5079299;28;20887;-69
2022/03/23 06:49:42;;;;;;;22.10;13.25;;;3.90;63.10;;;;;;5078091;28;20657;-71
2022/03/23 06:52:10;;;;;;;25.20;14.95;;;4.00;63.10;;;;;;5076647;28;20203;-70
2022/03/23 06:54:40;;;;;;;21.30;13.85;;;4.00;63.20;;;;;;5076025;28;20228;-69
2022/03/23 06:57:08;;;;;;;24.25;13.90;;;4.10;63.40;;;;;;5074566;28;20207;-70
2022/03/23 06:59:37;;;;;;;24.13;13.88;;;4.10;63.40;;;;;;5077178;28;20208;-70
2022/03/23 07:02:06;;;;;;;22.70;15.00;;;4.20;63.50;;;;;;5077224;28;20232;-70
2022/03/23 07:04:34;;;;;;;22.40;13.68;;;4.30;63.60;;;;;;5075925;28;20227;-70
2022/03/23 07:07:02;;;;;;;29.45;14.52;;;4.30;63.70;;;;;;5077219;28;20215;-72
2022/03/23 07:09:32;;;;;;;19.70;13.50;;;4.40;63.70;;;;;;5076704;28;20260;-70
2022/03/23 07:12:03;;;;;;;20.35;14.00;;;4.50;63.80;;;;;;5078633;28;20203;-69
2022/03/23 07:14:32;;;;;;;19.63;13.27;;;4.60;63.80;;;;;;5071226;28;20288;-69
2022/03/23 07:17:01;;;;;;;20.27;12.88;;;4.70;63.90;;;;;;5074719;28;20232;-68
2022/03/23 07:19:29;;;;;;;19.70;12.15;;;4.70;63.90;;;;;;5076553;28;20229;-69
2022/03/23 07:21:57;;;;;;;18.10;13.48;;;4.80;63.90;;;;;;5058911;28;20579;-71
2022/03/23 07:24:25;;;;;;;27.95;17.05;;;4.80;64.00;;;;;;5075077;28;20278;-71
2022/03/23 07:26:53;;;;;;;35.20;21.70;;;4.90;64.00;;;;;;5077796;28;20211;-70
2022/03/23 07:29:42;;;;;;;38.40;22.70;;;5.00;64.00;;;;;;5078330;28;20264;-69
2022/03/23 07:32:11;;;;;;;33.33;20.63;;;5.10;64.00;;;;;;5073596;28;20235;-71
2022/03/23 07:34:38;;;;;;;34.22;21.20;;;5.20;63.90;;;;;;5078882;28;20284;-71
2022/03/23 07:37:06;;;;;;;34.28;19.58;;;5.30;63.90;;;;;;5072843;28;20638;-70
2022/03/23 07:39:34;;;;;;;39.85;20.08;;;5.30;63.90;;;;;;5076300;28;20867;-70
2022/03/23 07:42:09;;;;;;;32.83;18.90;;;5.40;63.90;;;;;;5078895;28;20199;-70
2022/03/23 07:44:36;;;;;;;29.17;17.70;;;5.50;63.80;;;;;;5072596;28;20214;-70
2022/03/23 07:47:10;;;;;;;32.75;16.75;;;5.60;63.80;;;;;;5072755;28;20827;-70
2022/03/23 07:49:39;;;;;;;27.80;16.08;;;5.70;63.80;;;;;;5076667;28;20392;-71
2022/03/23 07:52:08;;;;;;;26.17;14.07;;;5.80;63.70;;;;;;5079589;28;20669;-71
2022/03/23 07:54:37;;;;;;;22.42;14.60;;;5.90;63.60;;;;;;5077661;28;20235;-70
2022/03/23 07:57:05;;;;;;;19.30;12.82;;;6.00;63.50;;;;;;5075718;28;20207;-70
2022/03/23 07:59:34;;;;;;;21.23;12.82;;;6.10;63.40;;;;;;5076046;28;20285;-70
2022/03/23 08:02:02;;;;;;;23.33;13.48;;;6.10;63.30;;;;;;5077648;28;20235;-71
2022/03/23 08:04:32;;;;;;;22.65;12.57;;;6.20;63.40;;;;;;5075363;28;20616;-71
2022/03/23 08:07:01;;;;;;;23.63;13.48;;;6.30;63.30;;;;;;5075150;28;20261;-70
2022/03/23 08:09:30;;;;;;;27.63;14.00;;;6.40;63.10;;;;;;5078355;28;20207;-71
2022/03/23 08:12:00;;;;;;;22.83;12.85;;;6.50;63.10;;;;;;5077743;28;20842;-71
2022/03/23 08:14:28;;;;;;;20.25;13.40;;;6.50;63.10;;;;;;5076188;28;20228;-70
2022/03/23 08:16:56;;;;;;;29.77;14.88;;;6.60;63.10;;;;;;5074974;28;20235;-71
2022/03/23 08:19:24;;;;;;;26.40;15.57;;;6.70;63.10;;;;;;5073600;28;20238;-71
2022/03/23 08:21:54;;;;;;;27.70;14.88;;;6.80;63.00;;;;;;5075649;28;20211;-70
2022/03/23 08:24:22;;;;;;;23.75;13.13;;;6.90;63.00;;;;;;5080846;28;20224;-70
2022/03/23 08:26:50;;;;;;;22.83;15.05;;;7.00;63.00;;;;;;5079720;28;20199;-70
2022/03/23 08:29:18;;;;;;;29.13;14.68;;;7.10;62.90;;;;;;5083616;28;20684;-69
2022/03/23 08:31:46;;;;;;;19.88;12.27;;;7.20;62.90;;;;;;5084462;28;20795;-69
2022/03/23 08:34:14;;;;;;;17.42;11.63;;;7.30;62.80;;;;;;5083607;28;20231;-70
2022/03/23 08:36:42;;;;;;;23.10;12.30;;;7.40;62.60;;;;;;5080955;28;20257;-70
2022/03/23 08:39:11;;;;;;;19.42;12.10;;;7.50;62.60;;;;;;5073334;28;20207;-68
2022/03/23 08:41:39;;;;;;;17.55;11.52;;;7.60;62.30;;;;;;5081772;28;20211;-72
2022/03/23 08:44:07;;;;;;;19.17;12.52;;;7.80;62.20;;;;;;5075883;28;20232;-71
2022/03/23 08:46:35;;;;;;;17.10;10.97;;;7.90;62.00;;;;;;5076304;28;21157;-70
2022/03/23 08:49:03;;;;;;;22.17;11.60;;;7.90;61.80;;;;;;5076954;28;20454;-70
2022/03/23 08:51:31;;;;;;;16.00;11.97;;;8.00;61.60;;;;;;5079387;28;21169;-71
2022/03/23 08:53:59;;;;;;;25.60;11.38;;;8.10;61.50;;;;;;5074695;28;20481;-70
2022/03/23 08:56:28;;;;;;;21.43;13.03;;;8.20;61.20;;;;;;5082265;28;20196;-70
2022/03/23 08:58:56;;;;;;;17.60;11.60;;;8.30;61.10;;;;;;5075347;28;20507;-71
2022/03/23 09:01:24;;;;;;;26.73;11.77;;;8.30;61.00;;;;;;5077402;28;20526;-68
2022/03/23 09:03:53;;;;;;;20.90;12.30;;;8.40;61.10;;;;;;5076142;28;20240;-70
2022/03/23 09:06:21;;;;;;;20.73;12.02;;;8.50;61.00;;;;;;5062300;28;20492;-72
2022/03/23 09:08:49;;;;;;;18.60;12.27;;;8.50;60.90;;;;;;5060949;28;20208;-69
2022/03/23 09:11:17;;;;;;;23.80;14.60;;;8.60;60.90;;;;;;5078499;28;20457;-71
2022/03/23 09:13:47;;;;;;;18.87;12.13;;;8.70;60.70;;;;;;5075375;28;20480;-70
2022/03/23 09:16:15;;;;;;;19.37;11.70;;;8.80;60.60;;;;;;5071911;28;21475;-70
2022/03/23 09:18:43;;;;;;;18.17;11.77;;;8.80;60.60;;;;;;5072907;28;20897;-70
2022/03/23 09:21:11;;;;;;;18.63;12.73;;;8.90;60.40;;;;;;5071181;28;20500;-71
2022/03/23 09:23:39;;;;;;;17.00;11.10;;;9.00;60.50;;;;;;5074282;28;20493;-69
2022/03/23 09:26:09;;;;;;;25.57;13.10;;;9.10;60.30;;;;;;5077794;28;20457;-70
2022/03/23 09:28:37;;;;;;;21.60;12.70;;;9.20;60.20;;;;;;5069478;28;20461;-71
2022/03/23 09:31:07;;;;;;;22.50;12.20;;;9.30;60.20;;;;;;5073663;28;20477;-69
2022/03/23 09:33:35;;;;;;;19.90;11.37;;;9.30;60.10;;;;;;5074475;28;20480;-71
2022/03/23 09:36:04;;;;;;;20.37;12.80;;;9.40;60.00;;;;;;5073500;28;20462;-71
2022/03/23 09:38:34;;;;;;;19.53;12.60;;;9.40;59.80;;;;;;5076792;28;20457;-70
2022/03/23 09:41:01;;;;;;;17.43;11.60;;;9.50;59.70;;;;;;5079002;28;20453;-71
2022/03/23 09:43:30;;;;;;;21.50;11.40;;;9.60;59.70;;;;;;5084209;28;20519;-69
2022/03/23 09:46:04;;;;;;;21.47;12.00;;;9.70;59.60;;;;;;5081075;28;21063;-71
2022/03/23 09:48:34;;;;;;;18.60;12.07;;;9.70;59.60;;;;;;5076312;28;20441;-70
2022/03/23 09:51:03;;;;;;;20.97;12.00;;;9.80;59.70;;;;;;5079641;28;20499;-70
2022/03/23 09:53:33;;;;;;;22.00;12.60;;;9.90;59.50;;;;;;5079380;28;20887;-71
2022/03/23 09:56:03;;;;;;;23.83;12.50;;;10.00;59.40;;;;;;5080506;28;20496;-70
2022/03/23 09:58:30;;;;;;;19.17;12.13;;;10.00;59.40;;;;;;5086336;28;20449;-70
2022/03/23 10:00:59;;;;;;;19.40;12.70;;;10.10;59.00;;;;;;5074322;28;20529;-71
2022/03/23 10:04:05;;;;;;;35.07;13.63;;;10.20;59.20;;;;;;5074500;28;20489;-69
2022/03/23 10:06:55;;;;;;;21.13;13.17;;;10.30;59.10;;;;;;5077296;28;20509;-71
2022/03/23 10:10:05;;;;;;;18.70;12.50;;;10.40;59.00;;;;;;5062111;28;20810;-70
2022/03/23 10:12:58;;;;;;;21.43;12.30;;;10.50;59.00;;;;;;5055209;28;20465;-70
2022/03/23 10:16:03;;;;;;;23.87;13.00;;;10.60;58.90;;;;;;5078965;28;20470;-71
2022/03/23 10:18:52;;;;;;;31.17;14.97;;;10.70;58.70;;;;;;5046948;28;20556;-71
2022/03/23 10:21:21;;;;;;;19.50;12.80;;;10.80;58.60;;;;;;5078235;28;21022;-71
2022/03/23 10:24:28;;;;;;;30.20;14.10;;;10.90;58.30;;;;;;5063979;28;20509;-72
2022/03/23 10:26:58;;;;;;;21.57;14.20;;;11.00;58.00;;;;;;5075079;28;20456;-70
2022/03/23 10:29:27;;;;;;;18.40;12.67;;;11.10;58.10;;;;;;5077675;28;20469;-70
2022/03/23 10:32:06;;;;;;;19.57;12.90;;;11.20;58.10;;;;;;5075959;28;20468;-71
2022/03/23 10:34:44;;;;;;;23.50;15.17;;;11.30;58.10;;;;;;5081953;28;20578;-71
2022/03/23 10:37:13;;;;;;;23.90;13.80;;;11.30;57.90;;;;;;5080989;28;20516;-70
2022/03/23 10:39:45;;;;;;;32.77;13.57;;;11.40;57.80;;;;;;5081418;28;20561;-71
2022/03/23 10:42:17;;;;;;;28.50;15.00;;;11.50;57.50;;;;;;5078844;28;20445;-71
2022/03/23 10:44:46;;;;;;;21.40;14.83;;;11.60;57.00;;;;;;5076556;28;20966;-72
2022/03/23 10:47:27;;;;;;;22.97;13.43;;;11.70;57.40;;;;;;5077215;28;20473;-71
2022/03/23 10:49:55;;;;;;;26.83;14.47;;;11.70;57.30;;;;;;5081026;28;20442;-71
2022/03/23 10:52:27;;;;;;;18.37;12.90;;;11.90;57.20;;;;;;5075435;28;20453;-71
2022/03/23 10:54:57;;;;;;;25.70;13.97;;;12.00;57.10;;;;;;5078357;28;20480;-70
2022/03/23 10:58:07;;;;;;;21.30;13.57;;;12.00;56.90;;;;;;5080546;28;20445;-71
2022/03/23 11:00:38;;;;;;;25.70;13.40;;;12.10;56.60;;;;;;5060581;28;20469;-72
2022/03/23 11:03:08;;;;;;;27.40;15.37;;;12.20;56.30;;;;;;5074421;28;20478;-70
2022/03/23 11:05:38;;;;;;;24.53;13.97;;;12.20;56.30;;;;;;5082181;28;20540;-73
2022/03/23 11:08:11;;;;;;;19.13;13.10;;;12.30;56.30;;;;;;5080422;28;20446;-72
2022/03/23 11:16:23;;;;;;;21.20;12.53;;;12.50;55.70;;;;;;5079648;28;20483;-70
2022/03/23 11:18:57;;;;;;;21.20;13.30;;;12.60;55.50;;;;;;5080450;28;20485;-71
2022/03/23 11:21:28;;;;;;;18.23;11.83;;;12.70;54.50;;;;;;5079871;28;20454;-71
2022/03/23 11:23:56;;;;;;;18.70;11.57;;;12.80;54.00;;;;;;5075783;28;20462;-70
2022/03/23 11:26:27;;;;;;;16.70;9.87;;;12.90;54.10;;;;;;5081792;28;20520;-71
2022/03/23 11:28:57;;;;;;;14.17;10.40;;;12.90;52.90;;;;;;5079518;28;20449;-70
2022/03/23 11:31:26;;;;;;;15.70;11.13;;;13.00;52.80;;;;;;5078810;28;20473;-71
2022/03/23 11:33:55;;;;;;;17.53;12.10;;;13.10;52.30;;;;;;5073999;28;20547;-71
2022/03/23 11:36:29;;;;;;;18.07;11.63;;;13.20;52.00;;;;;;5075269;28;20473;-71
2022/03/23 11:39:00;;;;;;;16.60;12.10;;;13.20;51.70;;;;;;5079767;28;20479;-71
2022/03/23 11:41:28;;;;;;;18.97;11.43;;;13.20;51.10;;;;;;5076338;28;20453;-70
2022/03/23 11:43:58;;;;;;;18.60;10.40;;;13.30;50.70;;;;;;5063179;28;20474;-71
2022/03/23 11:46:28;;;;;;;16.63;11.10;;;13.40;49.60;;;;;;5077760;28;20559;-71
2022/03/23 11:49:05;;;;;;;15.83;10.43;;;13.50;49.60;;;;;;5078798;28;20453;-71
2022/03/23 11:51:50;;;;;;;15.13;11.10;;;13.50;49.80;;;;;;5075063;28;20994;-71
2022/03/23 11:54:27;;;;;;;14.30;10.70;;;13.60;48.90;;;;;;5088200;28;20532;-71
2022/03/23 11:56:57;;;;;;;14.40;10.87;;;13.70;49.20;;;;;;5062988;28;20484;-71
2022/03/23 11:59:27;;;;;;;16.40;9.43;;;13.60;49.10;;;;;;5084342;28;20872;-71
2022/03/23 12:01:57;;;;;;;16.63;10.00;;;13.70;48.50;;;;;;5080989;28;21412;-70
2022/03/23 12:04:26;;;;;;;15.70;11.10;;;13.70;47.80;;;;;;5074941;28;20465;-71
2022/03/23 12:07:00;;;;;;;14.10;9.60;;;13.80;47.20;;;;;;5072949;28;20480;-71
2022/03/23 12:09:34;;;;;;;16.67;11.57;;;13.90;47.60;;;;;;5068863;28;20456;-69
2022/03/23 12:12:03;;;;;;;15.50;9.20;;;13.90;47.40;;;;;;5079340;28;20454;-70
2022/03/23 12:14:34;;;;;;;15.50;9.23;;;13.90;47.30;;;;;;5075335;28;21095;-72
2022/03/23 12:17:27;;;;;;;15.23;10.70;;;14.00;46.80;;;;;;5063218;28;21061;-71
2022/03/23 12:20:05;;;;;;;15.70;10.17;;;14.00;46.40;;;;;;5076346;28;21243;-71
2022/03/23 12:23:02;;;;;;;15.30;10.27;;;14.10;46.10;;;;;;5084068;28;20946;-71
2022/03/23 12:25:36;;;;;;;14.30;9.83;;;14.10;46.10;;;;;;5071015;28;20498;-72
2022/03/23 12:28:38;;;;;;;15.17;9.10;;;14.10;45.70;;;;;;5078871;28;20452;-71
2022/03/23 12:31:10;;;;;;;14.83;9.40;;;14.20;45.30;;;;;;5079277;28;20904;-70
2022/03/23 12:34:04;;;;;;;14.30;9.87;;;14.20;44.80;;;;;;5072397;28;21082;-71
2022/03/23 12:39:28;;;;;;;13.47;8.93;;;14.20;45.20;;;;;;5078744;28;20457;-71
2022/03/23 12:41:58;;;;;;;14.03;9.30;;;14.20;45.00;;;;;;5059575;28;20457;-71
2022/03/23 12:44:34;;;;;;;13.00;10.00;;;14.20;45.20;;;;;;5075189;28;21045;-71
2022/03/23 12:47:06;;;;;;;17.03;8.53;;;14.30;44.80;;;;;;5082368;28;20811;-71
2022/03/23 12:58:06;;;;;;;21.97;12.87;;;14.50;44.70;;;;;;5078579;28;21321;-71
2022/03/23 13:00:37;;;;;;;22.47;11.53;;;14.50;44.10;;;;;;5074549;28;20482;-70
2022/03/23 13:03:38;;;;;;;13.90;9.90;;;14.60;44.40;;;;;;5080596;28;20479;-70
2022/03/23 13:06:10;;;;;;;15.17;9.90;;;14.70;44.20;;;;;;5046997;28;20471;-71
2022/03/23 13:08:51;;;;;;;17.50;10.10;;;14.60;44.00;;;;;;5074033;28;20449;-70
2022/03/23 13:11:24;;;;;;;19.23;10.10;;;14.60;44.00;;;;;;5073646;28;20446;-70
2022/03/23 13:13:54;;;;;;;15.80;10.33;;;14.70;44.20;;;;;;5074775;28;20473;-72
2022/03/23 13:16:24;;;;;;;17.40;11.67;;;14.70;44.20;;;;;;5071749;28;20482;-71
2022/03/23 13:18:57;;;;;;;17.50;11.13;;;14.70;43.90;;;;;;5070723;28;20462;-70
2022/03/23 13:21:30;;;;;;;17.63;10.47;;;14.80;43.80;;;;;;5071016;28;20457;-70
2022/03/23 13:24:03;;;;;;;13.33;10.07;;;14.90;43.30;;;;;;5077338;28;20476;-70